createdAt,value
2022-11-24T00:01:15.709Z,2.97
2022-11-24T00:04:03.504Z,3.10
2022-11-24T00:06:49.073Z,3.30
2022-11-24T00:09:35.009Z,3.17
2022-11-24T00:12:20.777Z,3.25
2022-11-24T00:15:06.766Z,3.38
2022-11-24T00:17:52.600Z,3.00
2022-11-24T00:20:38.564Z,2.92
2022-11-24T00:23:24.405Z,3.30
2022-11-24T00:26:15.333Z,3.60
2022-11-24T00:29:03.347Z,2.70
2022-11-24T00:31:49.188Z,2.85
2022-11-24T00:34:35.601Z,3.30
2022-11-24T00:37:21.572Z,3.08
2022-11-24T00:40:07.753Z,3.33
2022-11-24T00:42:53.359Z,3.08
2022-11-24T00:45:39.462Z,3.30
2022-11-24T00:48:25.681Z,3.50
2022-11-24T00:51:12.802Z,3.60
2022-11-24T00:53:59.479Z,3.33
2022-11-24T00:56:45.042Z,3.10
2022-11-24T00:59:32.544Z,3.63
2022-11-24T01:02:18.328Z,3.40
2022-11-24T01:05:04.274Z,3.08
2022-11-24T01:07:50.180Z,3.03
2022-11-24T01:10:36.265Z,3.53
2022-11-24T01:13:21.894Z,3.20
2022-11-24T01:16:29.982Z,2.88
2022-11-24T01:19:15.608Z,3.08
2022-11-24T01:22:01.453Z,2.85
2022-11-24T01:24:47.430Z,3.25
2022-11-24T01:27:33.314Z,3.13
2022-11-24T01:30:19.466Z,2.92
2022-11-24T01:33:07.425Z,3.05
2022-11-24T01:35:53.077Z,3.00
2022-11-24T01:38:39.095Z,3.05
2022-11-24T01:41:26.202Z,2.95
2022-11-24T01:44:26.494Z,2.78
2022-11-24T01:47:30.328Z,2.45
2022-11-24T01:50:17.694Z,2.90
2022-11-24T01:53:03.723Z,3.10
2022-11-24T01:55:49.713Z,3.17
2022-11-24T01:58:37.715Z,3.65
2022-11-24T02:01:23.586Z,2.78
2022-11-24T02:04:14.698Z,2.75
2022-11-24T02:07:02.215Z,2.53
2022-11-24T02:09:55.493Z,2.50
2022-11-24T02:12:45.092Z,2.75
2022-11-24T02:15:31.428Z,2.95
2022-11-24T02:18:17.318Z,2.70
2022-11-24T02:21:03.192Z,2.92
2022-11-24T02:24:05.279Z,2.67
2022-11-24T02:26:52.398Z,2.50
2022-11-24T02:29:38.544Z,2.85
2022-11-24T02:32:24.340Z,2.30
2022-11-24T02:35:11.724Z,2.80
2022-11-24T02:37:57.460Z,2.92
2022-11-24T02:40:47.511Z,2.67
2022-11-24T02:43:55.071Z,3.17
2022-11-24T02:46:40.900Z,2.50
2022-11-24T02:49:26.864Z,2.80
2022-11-24T02:52:12.665Z,2.70
2022-11-24T02:54:58.550Z,3.42
2022-11-24T02:57:44.483Z,2.20
2022-11-24T03:00:30.424Z,2.90
2022-11-24T03:03:16.442Z,3.08
2022-11-24T03:06:02.254Z,3.78
2022-11-24T03:08:48.111Z,3.35
2022-11-24T03:11:35.222Z,3.25
2022-11-24T03:14:20.805Z,3.65
2022-11-24T03:17:07.006Z,3.58
2022-11-24T03:19:52.762Z,3.38
2022-11-24T03:22:38.483Z,3.15
2022-11-24T03:25:24.575Z,3.70
2022-11-24T03:28:12.947Z,3.50
2022-11-24T03:30:58.853Z,4.32
2022-11-24T03:33:44.769Z,3.88
2022-11-24T03:36:30.613Z,3.33
2022-11-24T03:39:16.608Z,3.63
2022-11-24T03:42:02.565Z,3.65
2022-11-24T03:44:48.384Z,4.05
2022-11-24T03:47:34.292Z,3.50
2022-11-24T03:50:20.214Z,3.45
2022-11-24T03:53:06.235Z,4.00
2022-11-24T03:55:52.373Z,3.33
2022-11-24T03:58:38.157Z,4.32
2022-11-24T04:01:24.130Z,3.70
2022-11-24T04:04:11.599Z,3.63
2022-11-24T04:06:57.526Z,3.90
2022-11-24T04:09:43.434Z,3.17
2022-11-24T04:12:44.461Z,3.80
2022-11-24T04:15:30.722Z,3.80
2022-11-24T04:18:16.656Z,4.25
2022-11-24T04:21:02.497Z,3.85
2022-11-24T04:23:48.329Z,3.80
2022-11-24T04:26:34.165Z,3.67
2022-11-24T04:29:20.176Z,3.38
2022-11-24T04:32:06.411Z,4.35
2022-11-24T04:34:52.127Z,3.78
2022-11-24T04:37:37.909Z,4.03
2022-11-24T04:40:23.751Z,3.67
2022-11-24T04:43:10.092Z,4.00
2022-11-24T04:45:55.945Z,3.72
2022-11-24T04:48:42.456Z,4.20
2022-11-24T04:51:28.284Z,3.80
2022-11-24T04:54:14.578Z,3.50
2022-11-24T04:57:00.214Z,3.92
2022-11-24T04:59:46.011Z,3.90
2022-11-24T05:02:31.922Z,3.83
2022-11-24T05:05:17.825Z,3.70
2022-11-24T05:08:03.894Z,3.33
2022-11-24T05:10:49.671Z,4.35
2022-11-24T05:13:35.507Z,3.75
2022-11-24T05:16:21.487Z,3.40
2022-11-24T05:19:07.304Z,3.90
2022-11-24T05:21:54.299Z,3.58
2022-11-24T05:24:40.302Z,4.03
2022-11-24T05:27:26.393Z,3.47
2022-11-24T05:30:12.595Z,3.65
2022-11-24T05:32:58.792Z,3.72
2022-11-24T05:35:44.307Z,3.92
2022-11-24T05:38:30.377Z,3.90
2022-11-24T05:41:16.344Z,3.50
2022-11-24T05:44:02.278Z,3.60
2022-11-24T05:46:48.402Z,4.30
2022-11-24T05:49:34.009Z,3.90
2022-11-24T05:52:20.022Z,3.88
2022-11-24T05:55:07.199Z,4.10
2022-11-24T05:57:59.096Z,3.85
2022-11-24T06:00:45.046Z,4.13
2022-11-24T06:03:31.076Z,3.55
2022-11-24T06:06:16.950Z,7.53
2022-11-24T06:09:02.765Z,31.83
2022-11-24T06:11:49.109Z,17.25
2022-11-24T06:14:35.290Z,16.10
2022-11-24T06:17:21.187Z,12.90
2022-11-24T06:20:07.939Z,7.20
2022-11-24T06:22:53.579Z,21.45
2022-11-24T06:25:39.538Z,6.22
2022-11-24T06:28:25.778Z,6.38
2022-11-24T06:31:12.117Z,5.95
2022-11-24T06:33:58.281Z,6.95
2022-11-24T06:36:44.133Z,7.30
2022-11-24T06:39:29.993Z,5.20
2022-11-24T06:42:18.898Z,10.43
2022-11-24T06:45:08.964Z,9.52
2022-11-24T06:47:55.813Z,5.60
2022-11-24T06:50:41.768Z,8.93
2022-11-24T06:53:30.677Z,5.28
2022-11-24T06:56:19.389Z,5.20
2022-11-24T06:59:05.366Z,7.15
2022-11-24T07:01:51.317Z,14.32
2022-11-24T07:04:37.300Z,6.65
2022-11-24T07:07:23.080Z,4.32
2022-11-24T07:10:09.186Z,3.72
2022-11-24T07:12:54.916Z,3.53
2022-11-24T07:15:40.880Z,3.50
2022-11-24T07:18:26.932Z,3.40
2022-11-24T07:21:13.211Z,3.58
2022-11-24T07:23:59.250Z,4.05
2022-11-24T07:26:44.969Z,3.25
2022-11-24T07:29:30.829Z,3.90
2022-11-24T07:32:17.093Z,3.85
2022-11-24T07:35:03.214Z,3.72
2022-11-24T07:37:49.057Z,4.18
2022-11-24T07:40:35.012Z,4.03
2022-11-24T07:43:20.960Z,3.88
2022-11-24T07:46:10.618Z,3.90
2022-11-24T07:48:56.860Z,4.20
2022-11-24T07:51:43.242Z,3.63
2022-11-24T07:54:29.158Z,3.95
2022-11-24T07:57:14.976Z,3.58
2022-11-24T08:00:00.912Z,3.15
2022-11-24T08:02:46.818Z,3.38
2022-11-24T08:05:32.684Z,3.88
2022-11-24T08:08:18.571Z,3.50
2022-11-24T08:11:06.087Z,3.95
2022-11-24T08:13:52.279Z,3.15
2022-11-24T08:16:38.821Z,4.10
2022-11-24T08:19:24.956Z,3.33
2022-11-24T08:22:10.856Z,3.60
2022-11-24T08:24:56.840Z,3.47
2022-11-24T08:27:42.659Z,4.00
2022-11-24T08:30:28.574Z,3.85
2022-11-24T08:33:14.631Z,3.60
2022-11-24T08:36:09.208Z,3.75
2022-11-24T08:38:59.027Z,3.53
2022-11-24T08:41:44.795Z,3.95
2022-11-24T08:44:30.666Z,3.47
2022-11-24T08:47:16.852Z,3.10
2022-11-24T08:50:02.529Z,3.42
2022-11-24T08:52:48.527Z,3.90
2022-11-24T08:55:34.509Z,3.53
2022-11-24T08:58:20.364Z,3.67
2022-11-24T09:01:19.433Z,3.80
2022-11-24T09:04:05.796Z,3.50
2022-11-24T09:06:51.861Z,3.47
2022-11-24T09:09:37.788Z,3.63
2022-11-24T09:12:23.680Z,3.95
2022-11-24T09:15:09.802Z,3.30
2022-11-24T09:17:55.687Z,3.55
2022-11-24T09:20:41.551Z,3.75
2022-11-24T09:23:27.526Z,4.15
2022-11-24T09:26:17.446Z,4.43
2022-11-24T09:29:05.117Z,4.22
2022-11-24T09:31:50.829Z,4.25
2022-11-24T09:34:36.866Z,4.25
2022-11-24T09:37:24.259Z,3.47
2022-11-24T09:40:14.450Z,4.05
2022-11-24T09:43:31.628Z,3.60
2022-11-24T09:46:28.124Z,3.60
2022-11-24T09:49:22.532Z,3.58
2022-11-24T09:52:14.196Z,3.47
2022-11-24T09:55:02.972Z,3.58
2022-11-24T09:58:03.284Z,4.10
2022-11-24T10:00:51.808Z,3.67
2022-11-24T10:03:50.383Z,3.38
2022-11-24T10:06:38.310Z,3.65
2022-11-24T10:09:23.820Z,3.45
2022-11-24T10:12:23.581Z,3.42
2022-11-24T10:15:47.071Z,3.30
2022-11-24T10:18:44.660Z,3.88
2022-11-24T10:21:37.150Z,3.65
2022-11-24T10:24:51.726Z,3.53
2022-11-24T10:28:10.622Z,3.58
2022-11-24T10:31:21.998Z,2.90
2022-11-24T10:34:17.360Z,3.30
2022-11-24T10:37:11.499Z,3.78
2022-11-24T10:40:21.315Z,3.78
2022-11-24T10:43:16.044Z,5.22
2022-11-24T10:46:14.908Z,3.80
2022-11-24T10:49:04.869Z,3.45
2022-11-24T10:52:11.734Z,3.10
2022-11-24T10:55:04.100Z,3.65
2022-11-24T10:57:49.625Z,3.63
2022-11-24T11:00:36.575Z,3.72
2022-11-24T11:03:32.867Z,3.65
2022-11-24T11:06:30.455Z,2.55
2022-11-24T11:09:21.758Z,3.33
2022-11-24T11:12:43.209Z,2.78
2022-11-24T11:15:31.521Z,3.00
2022-11-24T11:18:18.841Z,2.85
2022-11-24T11:21:05.481Z,2.70
2022-11-24T11:23:51.825Z,2.90
2022-11-24T11:26:38.766Z,2.75
2022-11-24T11:35:39.833Z,2.30
2022-11-24T11:38:37.668Z,2.47
2022-11-24T11:41:32.959Z,3.22
2022-11-24T11:44:40.833Z,3.33
2022-11-24T11:47:56.716Z,2.85
2022-11-24T11:51:21.336Z,2.53
2022-11-24T11:54:15.653Z,3.50
2022-11-24T11:57:10.322Z,2.88
2022-11-24T12:00:07.701Z,3.65
2022-11-24T12:02:54.207Z,2.28
2022-11-24T12:06:00.766Z,2.75
2022-11-24T12:09:22.436Z,2.28
2022-11-24T12:12:54.390Z,2.83
2022-11-24T12:15:54.664Z,2.75
2022-11-24T12:19:08.321Z,2.63
2022-11-24T12:22:10.231Z,3.30
2022-11-24T12:25:23.601Z,4.20
2022-11-24T12:28:21.391Z,3.22
2022-11-24T12:31:09.800Z,3.50
2022-11-24T12:34:17.416Z,4.43
2022-11-24T12:37:16.674Z,3.67
2022-11-24T12:40:02.334Z,3.70
2022-11-24T12:43:03.984Z,4.00
2022-11-24T12:46:12.511Z,3.72
2022-11-24T12:49:08.553Z,4.90
2022-11-24T12:52:01.166Z,3.97
2022-11-24T12:54:46.976Z,4.40
2022-11-24T12:57:42.344Z,3.95
2022-11-24T13:00:39.984Z,3.10
2022-11-24T13:03:43.470Z,3.63
2022-11-24T13:06:34.785Z,3.97
2022-11-24T13:09:20.638Z,4.25
2022-11-24T13:12:13.627Z,3.30
2022-11-24T13:14:59.316Z,3.03
2022-11-24T13:18:02.797Z,4.18
2022-11-24T13:20:51.024Z,3.95
2022-11-24T13:23:37.248Z,3.75
2022-11-24T13:26:32.416Z,4.07
2022-11-24T13:29:28.406Z,4.13
2022-11-24T13:32:20.999Z,4.78
2022-11-24T13:35:15.542Z,4.38
2022-11-24T13:38:01.356Z,4.70
2022-11-24T13:41:06.344Z,4.20
2022-11-24T13:44:14.713Z,4.53
2022-11-24T13:47:06.203Z,5.07
2022-11-24T13:49:53.026Z,4.85
2022-11-24T13:53:00.197Z,4.57
2022-11-24T13:56:08.844Z,4.53
2022-11-24T13:58:56.326Z,4.82
2022-11-24T14:01:43.594Z,5.13
2022-11-24T14:04:31.407Z,5.15
2022-11-24T14:07:17.592Z,4.80
2022-11-24T14:10:03.565Z,4.82
2022-11-24T14:13:25.062Z,5.18
2022-11-24T14:16:11.262Z,4.90
2022-11-24T14:19:10.694Z,5.22
2022-11-24T14:21:56.784Z,5.18
2022-11-24T14:24:45.386Z,5.18
2022-11-24T14:27:40.073Z,4.93
2022-11-24T14:30:26.378Z,5.65
2022-11-24T14:33:12.795Z,5.72
2022-11-24T14:35:58.481Z,6.63
2022-11-24T14:38:44.485Z,4.47
2022-11-24T14:41:30.239Z,5.43
2022-11-24T14:44:21.003Z,5.20
2022-11-24T14:47:13.158Z,5.50
2022-11-24T14:50:07.436Z,5.82
2022-11-24T14:52:55.508Z,5.90
2022-11-24T14:55:42.358Z,5.20
2022-11-24T14:58:40.499Z,6.22
2022-11-24T15:01:28.237Z,6.45
2022-11-24T15:04:32.531Z,6.35
2022-11-24T15:07:29.519Z,6.28
2022-11-24T15:10:33.449Z,6.53
2022-11-24T15:13:23.557Z,6.95
2022-11-24T15:16:18.316Z,7.10
2022-11-24T15:19:06.665Z,7.40
2022-11-24T15:21:52.621Z,7.72
2022-11-24T15:24:54.624Z,6.60
2022-11-24T15:27:40.240Z,6.85
2022-11-24T15:30:26.420Z,7.35
2022-11-24T15:33:17.518Z,7.30
2022-11-24T15:36:03.554Z,8.60
2022-11-24T15:38:49.322Z,8.98
2022-11-24T15:41:35.222Z,8.15
2022-11-24T15:44:21.103Z,7.43
2022-11-24T15:47:07.095Z,8.48
2022-11-24T15:49:53.059Z,8.82
2022-11-24T15:52:39.401Z,9.27
2022-11-24T15:55:25.217Z,9.02
2022-11-24T15:58:15.141Z,9.18
2022-11-24T16:01:00.766Z,9.18
2022-11-24T16:03:48.378Z,7.50
2022-11-24T16:06:34.888Z,7.60
2022-11-24T16:09:20.808Z,6.40
2022-11-24T16:12:08.173Z,7.00
2022-11-24T16:14:53.724Z,7.40
2022-11-24T16:17:39.620Z,7.60
2022-11-24T16:20:25.547Z,8.88
2022-11-24T16:23:11.456Z,8.27
2022-11-24T16:25:57.335Z,8.77
2022-11-24T16:28:45.158Z,9.82
2022-11-24T16:31:31.167Z,8.88
2022-11-24T16:34:17.085Z,8.98
2022-11-24T16:37:02.927Z,9.27
2022-11-24T16:39:50.393Z,9.23
2022-11-24T16:42:36.118Z,9.77
2022-11-24T16:45:22.020Z,10.15
2022-11-24T16:48:07.963Z,10.43
2022-11-24T16:50:53.978Z,10.43
2022-11-24T16:53:40.003Z,11.65
2022-11-24T16:56:25.915Z,12.32
2022-11-24T16:59:11.915Z,13.63
2022-11-24T17:01:57.969Z,13.77
2022-11-24T17:04:43.716Z,14.27
2022-11-24T17:07:29.916Z,13.00
2022-11-24T17:10:15.801Z,12.85
2022-11-24T17:13:02.848Z,12.70
2022-11-24T17:15:53.932Z,13.73
2022-11-24T17:18:40.646Z,13.25
2022-11-24T17:21:27.546Z,13.27
2022-11-24T17:24:17.454Z,15.20
2022-11-24T17:27:03.127Z,13.93
2022-11-24T17:29:49.129Z,14.52
2022-11-24T17:32:35.057Z,14.40
2022-11-24T17:35:20.886Z,13.63
2022-11-24T17:38:06.673Z,13.55
2022-11-24T17:40:52.579Z,13.57
2022-11-24T17:43:38.914Z,13.30
2022-11-24T17:46:25.271Z,13.98
2022-11-24T17:49:13.174Z,12.98
2022-11-24T17:51:59.276Z,12.75
2022-11-24T17:54:46.697Z,13.55
2022-11-24T17:57:33.017Z,13.70
2022-11-24T18:00:19.099Z,13.73
2022-11-24T18:03:05.436Z,14.35
2022-11-24T18:05:51.153Z,15.02
2022-11-24T18:08:37.757Z,14.80
2022-11-24T18:11:30.452Z,14.77
2022-11-24T18:14:17.168Z,14.90
2022-11-24T18:17:03.052Z,15.35
2022-11-24T18:19:48.894Z,15.57
2022-11-24T18:23:04.141Z,15.80
2022-11-24T18:25:41.014Z,15.52
2022-11-24T18:28:27.483Z,16.52
2022-11-24T18:31:14.946Z,17.48
2022-11-24T18:34:00.777Z,16.65
2022-11-24T18:36:50.541Z,18.60
2022-11-24T18:39:36.427Z,18.15
2022-11-24T18:42:24.632Z,17.90
2022-11-24T18:45:10.702Z,18.45
2022-11-24T18:47:56.842Z,18.40
2022-11-24T18:50:42.845Z,18.23
2022-11-24T18:53:29.461Z,19.77
2022-11-24T18:56:16.775Z,19.48
2022-11-24T18:59:02.617Z,32.90
2022-11-24T19:01:48.708Z,52.70
2022-11-24T19:04:34.929Z,28.35
2022-11-24T19:07:20.914Z,40.72
2022-11-24T19:10:07.173Z,63.88
2022-11-24T19:12:52.843Z,71.40
2022-11-24T19:15:38.805Z,35.85
2022-11-24T19:18:24.702Z,51.45
2022-11-24T19:21:10.770Z,29.95
2022-11-24T19:24:02.889Z,19.25
2022-11-24T19:26:51.277Z,37.35
2022-11-24T19:29:42.847Z,76.10
2022-11-24T19:32:28.864Z,64.30
2022-11-24T19:35:14.807Z,31.92
2022-11-24T19:38:00.710Z,26.73
2022-11-24T19:40:46.504Z,27.90
2022-11-24T19:43:32.888Z,24.27
2022-11-24T19:46:19.351Z,22.17
2022-11-24T19:49:05.504Z,25.25
2022-11-24T19:51:51.632Z,28.27
2022-11-24T19:54:37.669Z,24.77
2022-11-24T19:57:23.463Z,22.63
2022-11-24T20:00:09.678Z,23.50
2022-11-24T20:02:55.428Z,22.73
2022-11-24T20:05:41.247Z,21.17
2022-11-24T20:08:30.529Z,21.00
2022-11-24T20:11:18.157Z,21.30
2022-11-24T20:14:04.099Z,20.00
2022-11-24T20:16:50.143Z,18.83
2022-11-24T20:19:35.986Z,18.67
2022-11-24T20:22:21.883Z,17.98
2022-11-24T20:25:09.146Z,17.40
2022-11-24T20:27:55.831Z,17.75
2022-11-24T20:30:41.653Z,18.50
2022-11-24T20:33:27.677Z,20.98
2022-11-24T20:36:16.149Z,22.55
2022-11-24T20:39:05.277Z,21.27
2022-11-24T20:41:51.926Z,21.17
2022-11-24T20:44:38.080Z,19.95
2022-11-24T20:47:23.898Z,19.27
2022-11-24T20:50:10.077Z,18.80
2022-11-24T20:52:55.770Z,18.40
2022-11-24T20:55:41.641Z,19.63
2022-11-24T20:58:27.673Z,17.45
2022-11-24T21:01:16.111Z,18.63
2022-11-24T21:04:03.072Z,17.20
2022-11-24T21:06:49.083Z,18.88
2022-11-24T21:09:35.197Z,18.90
2022-11-24T21:12:21.173Z,18.90
2022-11-24T21:15:07.663Z,18.45
2022-11-24T21:17:53.864Z,21.10
2022-11-24T21:20:39.599Z,19.45
2022-11-24T21:23:25.550Z,18.88
2022-11-24T21:26:15.056Z,19.60
2022-11-24T21:29:03.578Z,18.75
2022-11-24T21:31:49.605Z,19.75
2022-11-24T21:34:35.504Z,17.90
2022-11-24T21:37:21.206Z,18.25
2022-11-24T21:40:07.685Z,19.60
2022-11-24T21:42:53.680Z,17.17
2022-11-24T21:45:39.661Z,17.50
2022-11-24T21:48:25.602Z,19.23
2022-11-24T21:51:14.442Z,17.08
2022-11-24T21:54:00.084Z,16.55
2022-11-24T21:56:46.169Z,17.20
2022-11-24T21:59:32.071Z,17.00
2022-11-24T22:02:18.088Z,16.23
2022-11-24T22:05:03.911Z,17.17
2022-11-24T22:07:50.408Z,16.40
2022-11-24T22:10:36.362Z,15.88
2022-11-24T22:13:22.384Z,16.08
2022-11-24T22:16:13.925Z,16.63
2022-11-24T22:19:00.082Z,17.52
2022-11-24T22:21:46.327Z,16.13
2022-11-24T22:24:32.130Z,17.20
2022-11-24T22:27:17.913Z,17.85
2022-11-24T22:30:05.930Z,17.75
2022-11-24T22:32:51.668Z,18.13
2022-11-24T22:35:37.699Z,17.05
2022-11-24T22:38:23.620Z,16.70
2022-11-24T22:41:15.176Z,16.45
2022-11-24T22:44:00.975Z,16.92
2022-11-24T22:46:46.905Z,16.73
2022-11-24T22:49:32.712Z,16.40
2022-11-24T22:52:18.568Z,17.70
2022-11-24T22:55:04.620Z,16.55
2022-11-24T22:57:52.253Z,15.20
2022-11-24T23:00:40.137Z,13.95
2022-11-24T23:03:26.097Z,15.27
2022-11-24T23:06:13.507Z,15.05
2022-11-24T23:09:00.132Z,15.38
2022-11-24T23:11:46.333Z,15.65
2022-11-24T23:14:32.277Z,14.50
2022-11-24T23:17:18.012Z,15.60
2022-11-24T23:20:03.972Z,14.70
2022-11-24T23:22:49.884Z,14.80
2022-11-24T23:25:35.877Z,13.40
2022-11-24T23:28:21.602Z,13.52
2022-11-24T23:31:10.222Z,13.75
2022-11-24T23:34:00.900Z,13.75
2022-11-24T23:36:46.569Z,13.23
2022-11-24T23:39:32.323Z,12.25
2022-11-24T23:42:18.516Z,12.23
2022-11-24T23:45:05.759Z,12.23
2022-11-24T23:47:53.989Z,10.52
2022-11-24T23:50:39.590Z,10.45
2022-11-24T23:53:25.495Z,11.23
2022-11-24T23:56:19.690Z,10.65
2022-11-24T23:59:05.584Z,11.20
